createdAt,value
2017-10-26T00:00:35.248Z,7.23
2017-10-26T00:03:02.696Z,11.00
2017-10-26T00:05:30.080Z,16.80
2017-10-26T00:07:57.511Z,9.93
2017-10-26T00:10:24.896Z,7.20
2017-10-26T00:12:52.316Z,5.50
2017-10-26T00:15:19.704Z,5.60
2017-10-26T00:17:47.164Z,7.87
2017-10-26T00:20:14.571Z,9.70
2017-10-26T00:22:41.968Z,6.10
2017-10-26T00:25:09.404Z,12.40
2017-10-26T00:27:36.804Z,7.57
2017-10-26T00:30:04.244Z,10.00
2017-10-26T00:32:31.630Z,7.20
2017-10-26T00:34:59.351Z,8.87
2017-10-26T00:37:26.740Z,10.63
2017-10-26T00:39:54.160Z,8.90
2017-10-26T00:42:21.553Z,8.83
2017-10-26T00:44:48.971Z,12.90
2017-10-26T00:47:17.276Z,6.60
2017-10-26T00:49:44.726Z,5.90
2017-10-26T00:52:12.125Z,5.20
2017-10-26T00:54:39.547Z,5.77
2017-10-26T00:57:06.985Z,4.60
2017-10-26T00:59:34.388Z,4.30
2017-10-26T01:02:01.800Z,7.00
2017-10-26T01:04:29.223Z,4.37
2017-10-26T01:06:56.652Z,4.90
2017-10-26T01:09:24.062Z,4.33
2017-10-26T01:11:51.513Z,7.20
2017-10-26T01:14:18.912Z,4.33
2017-10-26T01:16:46.341Z,6.93
2017-10-26T01:19:13.767Z,6.87
2017-10-26T01:21:41.220Z,8.67
2017-10-26T01:24:08.596Z,4.63
2017-10-26T01:26:36.036Z,4.70
2017-10-26T01:29:03.465Z,4.93
2017-10-26T01:31:30.853Z,9.33
2017-10-26T01:33:58.289Z,6.00
2017-10-26T01:36:25.675Z,5.27
2017-10-26T01:38:53.112Z,7.90
2017-10-26T01:41:20.518Z,13.63
2017-10-26T01:43:47.936Z,6.50
2017-10-26T01:46:15.343Z,4.93
2017-10-26T01:48:42.768Z,5.23
2017-10-26T01:51:10.163Z,7.87
2017-10-26T01:53:37.586Z,9.30
2017-10-26T01:56:05.003Z,8.07
2017-10-26T01:58:32.448Z,19.67
2017-10-26T02:00:59.870Z,9.83
2017-10-26T02:03:27.273Z,7.17
2017-10-26T02:05:54.713Z,8.00
2017-10-26T02:08:22.133Z,7.33
2017-10-26T02:10:49.553Z,6.30
2017-10-26T02:13:16.955Z,7.50
2017-10-26T02:15:44.398Z,17.33
2017-10-26T02:18:11.808Z,9.23
2017-10-26T02:20:39.251Z,12.33
2017-10-26T02:23:06.633Z,4.70
2017-10-26T02:25:34.068Z,12.20
2017-10-26T02:28:01.453Z,5.50
2017-10-26T02:30:40.743Z,9.97
2017-10-26T02:33:08.139Z,8.60
2017-10-26T02:35:35.553Z,8.87
2017-10-26T02:38:03.042Z,8.80
2017-10-26T02:40:30.431Z,10.50
2017-10-26T02:42:57.839Z,8.37
2017-10-26T02:45:25.246Z,15.73
2017-10-26T02:47:52.709Z,9.20
2017-10-26T02:50:20.123Z,10.87
2017-10-26T02:52:47.568Z,10.13
2017-10-26T02:55:14.952Z,9.30
2017-10-26T02:57:42.376Z,9.37
2017-10-26T03:00:09.807Z,10.10
2017-10-26T03:02:37.211Z,11.83
2017-10-26T03:05:04.629Z,10.93
2017-10-26T03:07:32.032Z,14.60
2017-10-26T03:10:00.661Z,15.20
2017-10-26T03:12:28.053Z,22.77
2017-10-26T03:14:55.479Z,19.83
2017-10-26T03:17:22.901Z,34.57
2017-10-26T03:19:50.319Z,13.90
2017-10-26T03:22:17.741Z,11.17
2017-10-26T03:24:45.168Z,10.37
2017-10-26T03:27:12.573Z,16.40
2017-10-26T03:29:40.006Z,11.07
2017-10-26T03:32:07.409Z,12.37
2017-10-26T03:34:34.816Z,11.47
2017-10-26T03:37:02.229Z,8.93
2017-10-26T03:39:29.631Z,15.47
2017-10-26T03:41:57.076Z,11.50
2017-10-26T03:44:24.471Z,9.13
2017-10-26T03:46:51.922Z,10.73
2017-10-26T03:49:19.313Z,14.70
2017-10-26T03:51:46.735Z,9.07
2017-10-26T03:54:14.135Z,23.10
2017-10-26T03:56:41.613Z,18.03
2017-10-26T03:59:08.998Z,10.70
2017-10-26T04:01:36.403Z,11.70
2017-10-26T04:04:03.845Z,15.33
2017-10-26T04:06:31.264Z,20.20
2017-10-26T04:08:58.706Z,21.50
2017-10-26T04:11:26.133Z,19.80
2017-10-26T04:13:53.570Z,16.03
2017-10-26T04:16:20.955Z,32.73
2017-10-26T04:18:48.432Z,14.70
2017-10-26T04:21:15.833Z,20.00
2017-10-26T04:23:43.261Z,19.77
2017-10-26T04:26:10.704Z,15.87
2017-10-26T04:28:38.090Z,18.10
2017-10-26T04:31:05.533Z,15.43
2017-10-26T04:33:32.973Z,19.40
2017-10-26T04:36:00.394Z,23.33
2017-10-26T04:38:27.795Z,20.77
2017-10-26T04:40:55.212Z,27.40
2017-10-26T04:43:22.610Z,23.57
2017-10-26T04:45:50.043Z,19.50
2017-10-26T04:48:17.448Z,30.37
2017-10-26T04:50:44.879Z,33.43
2017-10-26T04:53:12.319Z,22.17
2017-10-26T04:55:39.759Z,24.10
2017-10-26T04:58:07.195Z,22.40
2017-10-26T05:00:34.598Z,22.43
2017-10-26T05:03:02.027Z,34.40
2017-10-26T05:05:29.446Z,25.20
2017-10-26T05:07:56.876Z,29.03
2017-10-26T05:10:24.275Z,29.53
2017-10-26T05:12:51.711Z,104.43
2017-10-26T05:15:19.145Z,72.00
2017-10-26T05:17:46.601Z,90.70
2017-10-26T05:20:14.033Z,75.90
2017-10-26T05:22:41.470Z,67.73
2017-10-26T05:25:08.903Z,56.13
2017-10-26T05:27:36.341Z,45.47
2017-10-26T05:30:03.761Z,67.23
2017-10-26T05:32:31.155Z,96.70
2017-10-26T05:34:58.589Z,49.67
2017-10-26T05:37:26.020Z,59.67
2017-10-26T05:39:53.457Z,97.27
2017-10-26T05:42:20.882Z,64.67
2017-10-26T05:44:48.317Z,49.53
2017-10-26T05:47:15.740Z,58.10
2017-10-26T05:49:43.161Z,44.63
2017-10-26T05:52:10.995Z,60.17
2017-10-26T05:54:38.450Z,61.27
2017-10-26T05:57:05.889Z,57.80
2017-10-26T05:59:33.287Z,51.90
2017-10-26T06:02:00.719Z,48.50
2017-10-26T06:04:28.124Z,51.33
2017-10-26T06:06:55.530Z,43.50
2017-10-26T06:09:23.043Z,57.03
2017-10-26T06:11:50.482Z,62.90
2017-10-26T06:14:17.955Z,100.03
2017-10-26T06:16:45.363Z,58.33
2017-10-26T06:19:12.829Z,81.07
2017-10-26T06:21:40.227Z,105.27
2017-10-26T06:24:07.695Z,150.17
2017-10-26T06:26:35.105Z,87.40
2017-10-26T06:29:02.536Z,59.03
2017-10-26T06:31:29.955Z,56.93
2017-10-26T06:33:57.394Z,38.07
2017-10-26T06:36:24.803Z,47.27
2017-10-26T06:38:52.219Z,25.83
2017-10-26T06:41:19.684Z,30.83
2017-10-26T06:43:47.094Z,27.10
2017-10-26T06:46:14.539Z,20.20
2017-10-26T06:48:41.973Z,15.90
2017-10-26T06:51:09.372Z,19.20
2017-10-26T06:53:36.799Z,11.53
2017-10-26T06:56:04.244Z,13.50
2017-10-26T06:58:31.663Z,28.03
2017-10-26T07:00:59.090Z,23.00
2017-10-26T07:03:27.432Z,9.90
2017-10-26T07:05:54.875Z,17.93
2017-10-26T07:08:23.278Z,10.60
2017-10-26T07:10:50.692Z,11.20
2017-10-26T07:13:18.144Z,8.67
2017-10-26T07:15:45.556Z,9.87
2017-10-26T07:18:12.965Z,12.20
2017-10-26T07:20:40.925Z,19.93
2017-10-26T07:23:08.352Z,18.23
2017-10-26T07:25:36.590Z,16.70
2017-10-26T07:28:03.995Z,21.13
2017-10-26T07:30:31.437Z,18.50
2017-10-26T07:32:58.873Z,21.00
2017-10-26T07:35:27.214Z,17.00
2017-10-26T07:37:55.404Z,21.33
2017-10-26T07:40:22.888Z,16.47
2017-10-26T07:42:50.596Z,15.33
2017-10-26T07:45:18.039Z,22.30
2017-10-26T07:47:45.455Z,15.83
2017-10-26T07:50:12.924Z,19.90
2017-10-26T07:52:40.336Z,31.17
2017-10-26T07:55:07.780Z,25.00
2017-10-26T07:57:35.212Z,28.77
2017-10-26T08:00:02.655Z,32.93
2017-10-26T08:02:30.126Z,29.60
2017-10-26T08:04:58.185Z,34.90
2017-10-26T08:07:25.938Z,38.20
2017-10-26T08:09:53.370Z,35.27
2017-10-26T08:12:21.522Z,41.40
2017-10-26T08:14:50.265Z,36.90
2017-10-26T08:17:18.721Z,36.13
2017-10-26T08:19:46.204Z,36.93
2017-10-26T08:22:13.648Z,39.20
2017-10-26T08:24:41.979Z,45.90
2017-10-26T08:27:10.902Z,42.23
2017-10-26T08:29:38.301Z,36.77
2017-10-26T08:32:05.827Z,40.97
2017-10-26T08:34:33.261Z,39.23
2017-10-26T08:37:00.717Z,39.30
2017-10-26T08:39:28.171Z,42.30
2017-10-26T08:41:55.618Z,40.70
2017-10-26T08:44:23.021Z,36.20
2017-10-26T08:46:50.460Z,41.00
2017-10-26T08:49:17.916Z,34.10
2017-10-26T08:51:45.308Z,32.90
2017-10-26T08:54:12.812Z,30.33
2017-10-26T08:56:40.237Z,30.97
2017-10-26T08:59:07.709Z,35.07
2017-10-26T09:01:35.108Z,26.60
2017-10-26T09:04:02.551Z,37.10
2017-10-26T09:06:29.986Z,51.33
2017-10-26T09:08:57.417Z,28.60
2017-10-26T09:11:24.819Z,22.23
2017-10-26T09:13:52.289Z,21.67
2017-10-26T09:16:19.730Z,22.20
2017-10-26T09:18:47.225Z,19.60
2017-10-26T09:21:14.692Z,20.73
2017-10-26T09:23:42.964Z,19.17
2017-10-26T09:26:10.440Z,19.30
2017-10-26T09:28:37.876Z,16.50
2017-10-26T09:31:05.384Z,17.63
2017-10-26T09:33:38.704Z,14.83
2017-10-26T09:36:06.151Z,16.37
2017-10-26T09:38:33.564Z,22.43
2017-10-26T09:41:01.201Z,24.93
2017-10-26T09:43:28.662Z,21.70
2017-10-26T09:45:56.089Z,26.40
2017-10-26T09:48:23.524Z,22.87
2017-10-26T09:50:50.943Z,24.67
2017-10-26T09:53:18.402Z,27.93
2017-10-26T09:55:45.808Z,21.97
2017-10-26T09:58:13.199Z,34.37
2017-10-26T10:00:40.639Z,13.47
2017-10-26T10:03:08.037Z,10.00
2017-10-26T10:05:35.464Z,9.93
2017-10-26T10:08:02.867Z,9.10
2017-10-26T10:10:30.297Z,9.67
2017-10-26T10:12:57.707Z,8.77
2017-10-26T10:15:25.155Z,9.80
2017-10-26T10:17:52.587Z,10.50
2017-10-26T10:20:20.137Z,9.07
2017-10-26T10:22:47.545Z,9.77
2017-10-26T10:25:14.960Z,9.50
2017-10-26T10:27:42.365Z,14.90
2017-10-26T10:30:09.815Z,8.63
2017-10-26T10:32:37.215Z,13.20
2017-10-26T10:35:05.510Z,17.77
2017-10-26T10:37:34.293Z,12.50
2017-10-26T10:40:01.684Z,12.77
2017-10-26T10:42:30.025Z,11.97
2017-10-26T10:44:57.438Z,9.70
2017-10-26T10:47:24.861Z,13.27
2017-10-26T10:49:52.295Z,12.57
2017-10-26T10:52:19.743Z,19.93
2017-10-26T10:54:47.177Z,13.27
2017-10-26T10:57:14.588Z,19.23
2017-10-26T10:59:47.611Z,16.17
2017-10-26T11:02:15.860Z,10.77
2017-10-26T11:04:44.016Z,12.73
2017-10-26T11:07:11.452Z,13.40
2017-10-26T11:09:38.904Z,12.07
2017-10-26T11:12:06.308Z,12.03
2017-10-26T11:14:33.740Z,15.60
2017-10-26T11:17:01.207Z,14.43
2017-10-26T11:19:28.627Z,16.53
2017-10-26T11:21:56.456Z,16.07
2017-10-26T11:24:23.876Z,13.50
2017-10-26T11:26:51.335Z,19.33
2017-10-26T11:29:18.757Z,12.70
2017-10-26T11:31:46.403Z,23.93
2017-10-26T11:34:13.851Z,17.73
2017-10-26T11:36:41.284Z,18.93
2017-10-26T11:39:08.714Z,15.50
2017-10-26T11:41:36.151Z,16.80
2017-10-26T11:44:03.572Z,14.83
2017-10-26T11:46:31.074Z,19.30
2017-10-26T11:48:58.548Z,18.20
2017-10-26T11:51:26.053Z,21.23
2017-10-26T11:53:53.534Z,17.57
2017-10-26T11:56:21.840Z,16.90
2017-10-26T11:58:49.279Z,17.83
2017-10-26T12:01:16.887Z,18.00
2017-10-26T12:03:44.410Z,16.93
2017-10-26T12:06:11.802Z,21.40
2017-10-26T12:08:39.226Z,15.47
2017-10-26T12:11:06.732Z,14.00
2017-10-26T12:13:34.205Z,13.77
2017-10-26T12:16:01.670Z,14.93
2017-10-26T12:18:29.071Z,15.70
2017-10-26T12:20:56.492Z,20.07
2017-10-26T12:23:23.943Z,16.47
2017-10-26T12:25:52.384Z,14.00
2017-10-26T12:28:19.804Z,15.73
2017-10-26T12:30:47.236Z,13.47
2017-10-26T12:33:14.768Z,11.30
2017-10-26T12:35:42.230Z,13.70
2017-10-26T12:38:09.656Z,12.73
2017-10-26T12:40:37.110Z,13.20
2017-10-26T12:43:04.552Z,21.87
2017-10-26T12:45:32.000Z,15.73
2017-10-26T12:47:59.424Z,14.20
2017-10-26T12:50:26.898Z,15.13
2017-10-26T12:52:54.306Z,18.10
2017-10-26T12:55:21.746Z,15.40
2017-10-26T12:57:49.184Z,14.30
2017-10-26T13:00:16.597Z,13.83
2017-10-26T13:02:44.531Z,15.87
2017-10-26T13:05:11.965Z,20.17
2017-10-26T13:07:39.419Z,14.37
2017-10-26T13:10:08.415Z,14.87
2017-10-26T13:12:36.028Z,16.63
2017-10-26T13:15:03.466Z,15.13
2017-10-26T13:17:30.887Z,16.50
2017-10-26T13:19:58.343Z,15.93
2017-10-26T13:22:25.773Z,20.33
2017-10-26T13:24:53.233Z,22.10
2017-10-26T13:27:21.485Z,16.10
2017-10-26T13:29:48.900Z,17.87
2017-10-26T13:32:16.349Z,16.33
2017-10-26T13:34:44.029Z,16.77
2017-10-26T13:37:11.502Z,17.20
2017-10-26T13:39:39.068Z,18.97
2017-10-26T13:42:06.482Z,27.20
2017-10-26T13:44:34.834Z,12.63
2017-10-26T13:47:02.238Z,17.60
2017-10-26T13:49:29.676Z,16.63
2017-10-26T13:51:57.098Z,12.30
2017-10-26T13:54:24.589Z,12.03
2017-10-26T13:56:51.984Z,16.37
2017-10-26T13:59:19.400Z,14.17
2017-10-26T14:01:46.819Z,11.83
2017-10-26T14:04:14.276Z,11.97
2017-10-26T14:06:41.750Z,13.50
2017-10-26T14:09:09.780Z,14.20
2017-10-26T14:11:37.239Z,11.37
2017-10-26T14:14:04.647Z,12.83
2017-10-26T14:16:32.218Z,12.90
2017-10-26T14:18:59.670Z,10.20
2017-10-26T14:21:27.089Z,15.57
2017-10-26T14:23:54.534Z,16.47
2017-10-26T14:26:21.950Z,18.83
2017-10-26T14:28:49.424Z,13.50
2017-10-26T14:31:16.859Z,12.50
2017-10-26T14:33:44.311Z,11.13
2017-10-26T14:36:11.723Z,11.90
2017-10-26T14:38:39.161Z,14.07
2017-10-26T14:41:06.623Z,13.53
2017-10-26T14:43:34.131Z,17.43
2017-10-26T14:46:01.537Z,17.33
2017-10-26T14:48:28.987Z,15.40
2017-10-26T14:50:56.431Z,14.37
2017-10-26T14:53:23.888Z,17.33
2017-10-26T14:55:51.304Z,20.37
2017-10-26T14:58:18.776Z,14.13
2017-10-26T15:00:46.250Z,18.13
2017-10-26T15:03:13.685Z,15.03
2017-10-26T15:05:41.120Z,20.07
2017-10-26T15:08:08.572Z,18.23
2017-10-26T15:10:36.040Z,17.47
2017-10-26T15:13:03.467Z,19.37
2017-10-26T15:15:30.897Z,18.93
2017-10-26T15:17:58.319Z,15.50
2017-10-26T15:20:25.803Z,17.10
2017-10-26T15:22:53.281Z,23.27
2017-10-26T15:25:20.716Z,20.33
2017-10-26T15:27:48.182Z,18.87
2017-10-26T15:30:15.605Z,19.13
2017-10-26T15:32:43.029Z,19.43
2017-10-26T15:35:10.516Z,25.07
2017-10-26T15:37:37.942Z,29.40
2017-10-26T15:40:05.458Z,23.20
2017-10-26T15:42:32.997Z,21.90
2017-10-26T15:45:00.449Z,19.53
2017-10-26T15:47:27.920Z,20.70
2017-10-26T15:49:55.340Z,19.57
2017-10-26T15:52:22.820Z,21.93
2017-10-26T15:54:50.286Z,21.57
2017-10-26T15:57:17.696Z,25.97
2017-10-26T15:59:45.141Z,23.37
2017-10-26T16:02:12.580Z,22.33
2017-10-26T16:04:40.100Z,23.60
2017-10-26T16:07:07.552Z,20.87
2017-10-26T16:09:35.019Z,21.00
2017-10-26T16:12:02.507Z,22.33
2017-10-26T16:14:29.964Z,22.27
2017-10-26T16:16:57.419Z,22.67
2017-10-26T16:19:24.974Z,21.60
2017-10-26T16:21:52.506Z,24.10
2017-10-26T16:24:19.928Z,26.00
2017-10-26T16:26:47.382Z,29.17
2017-10-26T16:29:14.819Z,23.90
2017-10-26T16:31:42.233Z,17.73
2017-10-26T16:34:09.695Z,22.73
2017-10-26T16:36:37.137Z,24.50
2017-10-26T16:39:04.569Z,20.47
2017-10-26T16:41:32.041Z,24.20
2017-10-26T16:43:59.480Z,27.83
2017-10-26T16:46:26.943Z,24.03
2017-10-26T16:48:54.362Z,23.97
2017-10-26T16:51:21.860Z,22.07
2017-10-26T16:53:49.303Z,25.30
2017-10-26T16:56:16.765Z,30.30
2017-10-26T16:58:44.209Z,25.77
2017-10-26T17:01:11.633Z,25.97
2017-10-26T17:03:39.085Z,27.47
2017-10-26T17:06:06.503Z,23.60
2017-10-26T17:08:33.938Z,22.80
2017-10-26T17:11:01.373Z,28.60
2017-10-26T17:13:28.800Z,29.27
2017-10-26T17:15:56.228Z,24.30
2017-10-26T17:18:23.686Z,28.47
2017-10-26T17:20:51.097Z,27.90
2017-10-26T17:23:18.547Z,31.20
2017-10-26T17:25:45.980Z,27.37
2017-10-26T17:28:13.430Z,28.70
2017-10-26T17:30:40.889Z,31.87
2017-10-26T17:33:08.300Z,31.50
2017-10-26T17:35:35.755Z,27.47
2017-10-26T17:38:03.157Z,30.93
2017-10-26T17:40:30.627Z,33.27
2017-10-26T17:42:58.093Z,34.23
2017-10-26T17:45:25.510Z,33.20
2017-10-26T17:47:52.977Z,31.87
2017-10-26T17:50:20.363Z,38.87
2017-10-26T17:52:47.796Z,33.63
2017-10-26T17:55:15.230Z,33.83
2017-10-26T17:57:42.674Z,32.30
2017-10-26T18:00:10.080Z,33.80
2017-10-26T18:02:37.534Z,34.00
2017-10-26T18:05:04.944Z,43.80
2017-10-26T18:07:32.415Z,35.73
2017-10-26T18:09:59.838Z,40.40
2017-10-26T18:12:27.258Z,37.77
2017-10-26T18:14:54.681Z,35.50
2017-10-26T18:17:22.169Z,39.80
2017-10-26T18:19:49.616Z,34.07
2017-10-26T18:22:17.006Z,38.47
2017-10-26T18:24:44.440Z,38.47
2017-10-26T18:27:11.875Z,38.57
2017-10-26T18:29:39.370Z,43.17
2017-10-26T18:32:06.808Z,40.90
2017-10-26T18:34:34.229Z,39.23
2017-10-26T18:37:01.704Z,35.33
2017-10-26T18:39:29.135Z,36.60
2017-10-26T18:41:56.571Z,37.37
2017-10-26T18:44:23.988Z,40.47
2017-10-26T18:46:51.439Z,35.53
2017-10-26T18:49:18.861Z,37.30
2017-10-26T18:51:46.304Z,45.97
2017-10-26T18:54:13.707Z,40.37
2017-10-26T18:56:41.163Z,37.00
2017-10-26T18:59:08.633Z,38.90
2017-10-26T19:01:36.087Z,36.40
2017-10-26T19:04:03.532Z,39.33
2017-10-26T19:06:30.934Z,37.73
2017-10-26T19:08:58.376Z,40.23
2017-10-26T19:11:25.815Z,39.43
2017-10-26T19:13:53.270Z,38.37
2017-10-26T19:16:20.688Z,41.83
2017-10-26T19:18:48.159Z,41.13
2017-10-26T19:21:15.593Z,44.07
2017-10-26T19:23:43.019Z,42.97
2017-10-26T19:26:10.468Z,45.43
2017-10-26T19:28:37.889Z,44.97
2017-10-26T19:31:05.329Z,44.93
2017-10-26T19:33:32.750Z,42.13
2017-10-26T19:36:00.170Z,39.67
2017-10-26T19:38:27.607Z,44.37
2017-10-26T19:40:55.039Z,46.03
2017-10-26T19:43:22.545Z,46.57
2017-10-26T19:45:49.969Z,49.03
2017-10-26T19:48:17.412Z,47.67
2017-10-26T19:50:44.829Z,42.80
2017-10-26T19:53:12.295Z,43.30
2017-10-26T19:55:39.726Z,43.07
2017-10-26T19:58:07.190Z,49.90
2017-10-26T20:00:34.647Z,42.97
2017-10-26T20:03:02.052Z,53.70
2017-10-26T20:05:29.487Z,48.20
2017-10-26T20:07:56.896Z,41.17
2017-10-26T20:10:24.347Z,49.07
2017-10-26T20:12:51.756Z,43.80
2017-10-26T20:15:19.210Z,44.97
2017-10-26T20:17:46.620Z,48.77
2017-10-26T20:20:14.077Z,53.20
2017-10-26T20:22:41.497Z,43.97
2017-10-26T20:25:08.912Z,42.83
2017-10-26T20:27:36.971Z,43.83
2017-10-26T20:30:04.419Z,37.60
2017-10-26T20:32:31.845Z,41.10
2017-10-26T20:34:59.643Z,39.53
2017-10-26T20:37:27.116Z,35.00
2017-10-26T20:39:54.551Z,33.60
2017-10-26T20:42:22.021Z,36.70
2017-10-26T20:44:49.435Z,37.07
2017-10-26T20:47:16.842Z,38.20
2017-10-26T20:49:49.845Z,35.40
2017-10-26T20:52:22.963Z,37.10
2017-10-26T20:54:55.907Z,34.00
2017-10-26T20:57:28.955Z,34.13
2017-10-26T21:00:01.870Z,35.40
2017-10-26T21:02:34.956Z,37.40
2017-10-26T21:05:07.865Z,33.47
2017-10-26T21:07:40.779Z,34.03
2017-10-26T21:10:13.706Z,33.70
2017-10-26T21:12:47.160Z,34.80
2017-10-26T21:15:14.696Z,31.90
2017-10-26T21:17:42.109Z,34.00
2017-10-26T21:20:09.533Z,43.03
2017-10-26T21:22:36.964Z,30.30
2017-10-26T21:25:04.495Z,30.70
2017-10-26T21:27:31.977Z,34.00
2017-10-26T21:29:59.402Z,31.57
2017-10-26T21:32:26.827Z,34.87
2017-10-26T21:34:54.242Z,33.10
2017-10-26T21:37:21.700Z,44.07
2017-10-26T21:39:49.281Z,45.80
2017-10-26T23:23:10.756Z,142.27
2017-10-26T23:25:38.223Z,67.03
2017-10-26T23:28:05.618Z,50.30
2017-10-26T23:30:33.075Z,72.23
2017-10-26T23:33:00.501Z,82.30
2017-10-26T23:35:27.957Z,98.87
2017-10-26T23:37:55.373Z,124.37
2017-10-26T23:40:22.854Z,109.13
2017-10-26T23:42:50.292Z,96.27
2017-10-26T23:45:17.720Z,54.43
2017-10-26T23:47:45.155Z,98.87
2017-10-26T23:50:12.560Z,112.03
2017-10-26T23:52:40.034Z,125.93
2017-10-26T23:55:07.461Z,79.17
2017-10-26T23:57:34.895Z,43.77
